createdAt,value
2022-09-07T00:01:20.765Z,19.70
2022-09-07T00:03:48.858Z,19.70
2022-09-07T00:06:17.612Z,19.70
2022-09-07T00:08:47.761Z,19.70
2022-09-07T00:11:19.149Z,19.70
2022-09-07T00:13:50.974Z,19.80
2022-09-07T00:16:23.422Z,19.60
2022-09-07T00:18:53.859Z,19.60
2022-09-07T00:21:22.270Z,19.60
2022-09-07T00:23:52.078Z,19.50
2022-09-07T00:26:23.816Z,19.50
2022-09-07T00:28:53.244Z,19.50
2022-09-07T00:31:23.983Z,19.60
2022-09-07T00:33:54.932Z,19.60
2022-09-07T00:36:24.422Z,19.60
2022-09-07T00:38:54.196Z,19.60
2022-09-07T00:41:24.237Z,19.60
2022-09-07T00:43:55.441Z,19.60
2022-09-07T00:46:27.144Z,19.60
2022-09-07T00:49:09.676Z,19.60
2022-09-07T00:51:44.834Z,19.50
2022-09-07T00:54:20.133Z,19.50
2022-09-07T00:56:52.347Z,19.50
2022-09-07T00:59:26.292Z,19.60
2022-09-07T01:01:56.249Z,19.60
2022-09-07T01:04:27.471Z,19.70
2022-09-07T01:06:58.081Z,19.70
2022-09-07T01:09:30.123Z,19.70
2022-09-07T01:12:02.702Z,19.70
2022-09-07T01:14:38.382Z,19.70
2022-09-07T01:17:19.848Z,19.70
2022-09-07T01:20:29.339Z,19.80
2022-09-07T01:23:44.470Z,19.80
2022-09-07T01:26:44.664Z,19.80
2022-09-07T01:29:23.017Z,19.80
2022-09-07T01:32:01.563Z,19.90
2022-09-07T01:34:31.205Z,19.70
2022-09-07T01:37:09.244Z,19.50
2022-09-07T01:39:49.675Z,19.60
2022-09-07T01:42:24.812Z,19.60
2022-09-07T01:44:59.848Z,19.50
2022-09-07T01:47:35.595Z,19.50
2022-09-07T01:50:11.348Z,19.50
2022-09-07T01:52:49.115Z,19.50
2022-09-07T01:55:26.015Z,19.50
2022-09-07T01:58:01.214Z,19.50
2022-09-07T02:00:35.241Z,19.50
2022-09-07T02:03:14.277Z,19.50
2022-09-07T02:05:53.265Z,19.40
2022-09-07T02:08:29.854Z,19.40
2022-09-07T02:11:06.181Z,19.50
2022-09-07T02:13:41.537Z,19.50
2022-09-07T02:16:16.460Z,19.50
2022-09-07T02:18:48.561Z,19.60
2022-09-07T02:21:23.480Z,19.60
2022-09-07T02:23:58.349Z,19.60
2022-09-07T02:26:30.511Z,19.60
2022-09-07T02:28:59.101Z,19.60
2022-09-07T02:31:29.444Z,19.60
2022-09-07T02:33:58.142Z,19.60
2022-09-07T02:36:33.601Z,19.60
2022-09-07T02:39:01.970Z,19.60
2022-09-07T02:41:35.135Z,19.70
2022-09-07T02:44:08.591Z,19.70
2022-09-07T02:47:07.306Z,19.60
2022-09-07T02:50:04.809Z,19.60
2022-09-07T02:52:47.301Z,19.60
2022-09-07T02:55:32.540Z,19.60
2022-09-07T02:58:17.026Z,19.50
2022-09-07T03:00:55.341Z,19.50
2022-09-07T03:03:37.173Z,19.40
2022-09-07T03:06:14.790Z,19.40
2022-09-07T03:08:50.425Z,19.30
2022-09-07T03:11:19.013Z,19.40
2022-09-07T03:13:47.186Z,19.40
2022-09-07T03:16:16.569Z,19.40
2022-09-07T03:18:46.539Z,19.40
2022-09-07T03:21:14.684Z,19.40
2022-09-07T03:23:43.408Z,19.30
2022-09-07T03:26:24.781Z,19.40
2022-09-07T03:28:52.920Z,19.40
2022-09-07T03:31:21.591Z,19.40
2022-09-07T03:33:51.043Z,19.40
2022-09-07T03:36:19.187Z,19.30
2022-09-07T03:38:47.488Z,19.40
2022-09-07T03:41:16.159Z,19.30
2022-09-07T03:43:44.489Z,19.30
2022-09-07T03:46:15.102Z,19.30
2022-09-07T03:48:43.761Z,19.20
2022-09-07T03:51:17.234Z,19.20
2022-09-07T03:53:47.985Z,19.10
2022-09-07T03:56:20.411Z,19.10
2022-09-07T03:58:51.123Z,19.10
2022-09-07T04:01:22.677Z,19.10
2022-09-07T04:03:51.576Z,19.10
2022-09-07T04:06:21.710Z,19.00
2022-09-07T04:08:49.820Z,19.00
2022-09-07T04:11:20.802Z,19.00
2022-09-07T04:13:49.028Z,19.00
2022-09-07T04:16:21.396Z,18.90
2022-09-07T04:18:51.463Z,19.00
2022-09-07T04:21:21.545Z,18.90
2022-09-07T04:23:50.423Z,18.90
2022-09-07T04:26:22.347Z,18.80
2022-09-07T04:28:51.767Z,18.80
2022-09-07T04:31:21.250Z,18.70
2022-09-07T04:33:51.474Z,18.60
2022-09-07T04:36:22.764Z,18.60
2022-09-07T04:38:57.146Z,18.50
2022-09-07T04:41:25.797Z,18.50
2022-09-07T04:43:56.005Z,18.40
2022-09-07T04:46:27.027Z,18.40
2022-09-07T04:48:57.713Z,18.40
2022-09-07T04:51:30.597Z,18.30
2022-09-07T04:54:01.595Z,18.30
2022-09-07T04:56:31.056Z,18.20
2022-09-07T04:58:59.993Z,18.20
2022-09-07T05:01:29.314Z,18.20
2022-09-07T05:03:57.490Z,18.10
2022-09-07T05:06:27.040Z,18.10
2022-09-07T05:08:56.587Z,18.10
2022-09-07T05:11:29.392Z,18.10
2022-09-07T05:13:58.850Z,18.10
2022-09-07T05:16:28.740Z,18.10
2022-09-07T05:18:59.943Z,18.10
2022-09-07T05:21:32.218Z,18.10
2022-09-07T05:24:01.842Z,18.10
2022-09-07T05:26:34.038Z,18.10
2022-09-07T05:31:52.889Z,18.10
2022-09-07T05:36:58.299Z,18.20
2022-09-07T05:39:27.789Z,18.20
2022-09-07T05:41:56.393Z,18.30
2022-09-07T05:47:13.817Z,18.40
2022-09-07T05:49:41.946Z,18.40
2022-09-07T05:52:11.989Z,18.40
2022-09-07T05:54:40.889Z,18.50
2022-09-07T05:57:11.778Z,18.60
2022-09-07T05:59:40.072Z,18.70
2022-09-07T06:02:09.176Z,18.70
2022-09-07T06:04:37.363Z,18.70
2022-09-07T06:07:21.142Z,18.80
2022-09-07T06:12:39.988Z,18.80
2022-09-07T06:15:10.370Z,18.90
2022-09-07T06:17:38.504Z,19.00
2022-09-07T06:20:09.065Z,19.00
2022-09-07T06:22:37.466Z,19.10
2022-09-07T06:25:08.721Z,19.20
2022-09-07T06:27:36.986Z,19.30
2022-09-07T06:30:07.352Z,19.50
2022-09-07T06:35:09.985Z,19.70
2022-09-07T06:37:38.481Z,19.80
2022-09-07T06:40:10.475Z,20.00
2022-09-07T06:42:42.029Z,20.20
2022-09-07T06:45:12.266Z,20.30
2022-09-07T06:47:41.081Z,20.40
2022-09-07T06:50:12.409Z,20.60
2022-09-07T06:55:30.027Z,20.70
2022-09-07T06:57:58.151Z,20.90
2022-09-07T07:00:26.635Z,21.00
2022-09-07T07:02:54.733Z,21.10
2022-09-07T07:05:23.056Z,21.30
2022-09-07T07:07:51.290Z,21.50
2022-09-07T07:10:24.284Z,21.70
2022-09-07T07:12:57.493Z,21.90
2022-09-07T07:15:28.945Z,22.00
2022-09-07T07:18:02.548Z,22.20
2022-09-07T07:20:44.142Z,22.30
2022-09-07T07:23:13.488Z,22.40
2022-09-07T07:25:41.551Z,22.40
2022-09-07T07:31:06.067Z,22.50
2022-09-07T07:33:39.153Z,22.50
2022-09-07T07:36:13.600Z,22.60
2022-09-07T07:44:22.214Z,22.60
2022-09-07T07:46:51.271Z,22.70
2022-09-07T07:49:19.660Z,22.60
2022-09-07T07:54:36.931Z,22.50
2022-09-07T07:57:05.704Z,22.50
2022-09-07T07:59:35.909Z,22.50
2022-09-07T08:02:05.959Z,22.50
2022-09-07T08:04:35.494Z,22.50
2022-09-07T08:07:10.100Z,22.60
2022-09-07T08:09:39.250Z,22.60
2022-09-07T08:12:08.594Z,22.70
2022-09-07T08:14:41.699Z,22.70
2022-09-07T08:17:11.261Z,22.80
2022-09-07T08:19:40.210Z,22.90
2022-09-07T08:22:10.919Z,23.00
2022-09-07T08:24:39.494Z,23.10
2022-09-07T08:27:08.120Z,23.00
2022-09-07T08:29:38.061Z,23.20
2022-09-07T08:32:07.512Z,23.20
2022-09-07T08:34:38.490Z,23.20
2022-09-07T08:37:06.648Z,23.10
2022-09-07T08:39:36.181Z,23.10
2022-09-07T08:42:22.572Z,23.00
2022-09-07T08:44:59.663Z,23.10
2022-09-07T08:47:38.923Z,23.20
2022-09-07T08:50:15.952Z,23.30
2022-09-07T08:52:51.306Z,23.30
2022-09-07T08:55:29.161Z,23.40
2022-09-07T08:58:14.550Z,23.40
2022-09-07T09:06:48.906Z,23.30
2022-09-07T09:09:35.133Z,23.30
2022-09-07T09:12:17.162Z,23.30
2022-09-07T09:15:05.889Z,23.40
2022-09-07T09:17:41.659Z,23.50
2022-09-07T09:20:26.075Z,23.60
2022-09-07T09:23:04.261Z,23.70
2022-09-07T09:25:35.493Z,23.70
2022-09-07T09:28:04.386Z,23.70
2022-09-07T09:30:33.198Z,23.80
2022-09-07T09:33:20.707Z,23.90
2022-09-07T09:35:51.304Z,23.90
2022-09-07T09:38:35.141Z,23.90
2022-09-07T09:41:07.645Z,24.00
2022-09-07T09:43:44.677Z,24.00
2022-09-07T09:46:27.030Z,24.00
2022-09-07T09:49:01.099Z,24.00
2022-09-07T09:54:33.015Z,24.00
2022-09-07T09:57:01.776Z,24.10
2022-09-07T10:05:29.947Z,24.40
2022-09-07T10:07:58.718Z,24.50
2022-09-07T10:10:32.045Z,24.50
2022-09-07T10:13:00.766Z,24.60
2022-09-07T10:15:40.024Z,24.70
2022-09-07T10:18:21.189Z,24.70
2022-09-07T10:20:50.897Z,24.80
2022-09-07T10:23:25.321Z,24.90
2022-09-07T10:25:53.727Z,24.90
2022-09-07T10:28:24.517Z,25.00
2022-09-07T10:31:17.209Z,25.10
2022-09-07T10:37:04.668Z,25.20
2022-09-07T10:39:39.035Z,25.20
2022-09-07T10:42:25.942Z,25.50
2022-09-07T10:45:10.962Z,25.70
2022-09-07T10:47:57.595Z,25.90
2022-09-07T10:50:33.811Z,25.80
2022-09-07T10:53:42.436Z,25.90
2022-09-07T10:56:19.294Z,26.40
2022-09-07T10:59:08.293Z,26.80
2022-09-07T11:01:55.352Z,27.20
2022-09-07T11:04:50.253Z,27.90
2022-09-07T11:07:39.958Z,28.80
2022-09-07T11:10:25.344Z,29.70
2022-09-07T11:12:57.287Z,30.40
2022-09-07T11:15:31.799Z,30.90
2022-09-07T11:18:06.648Z,31.10
2022-09-07T11:20:39.807Z,31.20
2022-09-07T11:23:22.168Z,31.40
2022-09-07T11:26:02.573Z,31.50
2022-09-07T11:28:44.762Z,32.10
2022-09-07T11:31:23.846Z,31.90
2022-09-07T11:36:59.693Z,32.00
2022-09-07T11:39:35.315Z,32.70
2022-09-07T11:45:16.908Z,33.50
2022-09-07T11:47:51.614Z,33.90
2022-09-07T11:50:23.909Z,34.20
2022-09-07T11:52:57.074Z,34.00
2022-09-07T11:55:30.965Z,34.00
2022-09-07T11:58:31.083Z,34.40
2022-09-07T12:01:21.521Z,34.80
2022-09-07T12:04:32.401Z,34.40
2022-09-07T12:07:40.360Z,34.00
2022-09-07T12:10:49.404Z,34.40
2022-09-07T12:14:13.445Z,34.90
2022-09-07T12:17:08.154Z,35.30
2022-09-07T12:19:37.122Z,35.00
2022-09-07T12:22:05.947Z,34.50
2022-09-07T12:24:41.370Z,34.80
2022-09-07T12:27:39.133Z,35.10
2022-09-07T12:31:01.674Z,34.90
2022-09-07T12:33:34.467Z,33.60
2022-09-07T12:36:23.557Z,32.70
2022-09-07T12:39:21.545Z,32.00
2022-09-07T12:44:42.644Z,31.90
2022-09-07T12:47:31.414Z,31.30
2022-09-07T12:50:15.848Z,30.70
2022-09-07T12:53:08.848Z,30.30
2022-09-07T12:56:22.513Z,30.50
2022-09-07T12:59:19.804Z,31.90
2022-09-07T13:02:00.726Z,32.90
2022-09-07T13:05:02.945Z,34.00
2022-09-07T13:08:11.074Z,34.70
2022-09-07T13:10:42.116Z,34.60
2022-09-07T13:17:15.995Z,34.80
2022-09-07T13:20:19.144Z,35.60
2022-09-07T13:23:29.179Z,36.30
2022-09-07T13:26:01.362Z,36.10
2022-09-07T13:28:57.148Z,36.20
2022-09-07T13:31:49.508Z,36.20
2022-09-07T13:34:50.436Z,35.40
2022-09-07T13:37:25.385Z,34.00
2022-09-07T13:39:58.145Z,32.90
2022-09-07T13:42:31.867Z,32.00
2022-09-07T13:45:03.652Z,31.10
2022-09-07T13:47:54.942Z,30.50
2022-09-07T13:50:41.808Z,30.10
2022-09-07T13:53:39.992Z,29.90
2022-09-07T13:56:20.649Z,30.20
2022-09-07T13:58:52.893Z,30.50
2022-09-07T14:01:25.829Z,30.50
2022-09-07T14:03:59.442Z,30.40
2022-09-07T14:06:32.559Z,30.10
2022-09-07T14:09:06.401Z,30.10
2022-09-07T14:11:43.537Z,29.70
2022-09-07T14:14:20.271Z,29.30
2022-09-07T14:16:57.574Z,29.00
2022-09-07T14:19:37.768Z,28.90
2022-09-07T14:22:13.066Z,28.90
2022-09-07T14:24:50.542Z,28.60
2022-09-07T14:27:25.194Z,28.10
2022-09-07T14:29:54.173Z,28.10
2022-09-07T14:32:27.145Z,27.80
2022-09-07T14:34:55.952Z,27.50
2022-09-07T14:37:24.897Z,27.40
2022-09-07T14:39:56.295Z,27.40
2022-09-07T14:42:26.254Z,27.30
2022-09-07T14:45:20.838Z,27.40
2022-09-07T14:47:52.264Z,27.50
2022-09-07T14:50:24.166Z,27.40
2022-09-07T14:55:47.770Z,27.40
2022-09-07T14:58:25.342Z,27.50
2022-09-07T15:04:01.682Z,27.60
2022-09-07T15:09:37.783Z,27.70
2022-09-07T15:12:27.163Z,27.70
2022-09-07T15:14:58.297Z,27.60
2022-09-07T15:17:49.554Z,27.50
2022-09-07T15:20:41.458Z,27.50
2022-09-07T15:23:14.148Z,27.40
2022-09-07T15:25:49.637Z,27.40
2022-09-07T15:34:10.222Z,27.60
2022-09-07T15:36:40.807Z,27.60
2022-09-07T15:39:17.054Z,27.50
2022-09-07T15:41:46.458Z,27.30
2022-09-07T15:44:16.205Z,27.00
2022-09-07T15:47:43.293Z,26.70
2022-09-07T15:49:33.948Z,26.70
2022-09-07T15:52:06.162Z,26.60
2022-09-07T15:54:37.000Z,26.50
2022-09-07T15:59:58.964Z,26.20
2022-09-07T16:05:15.893Z,25.90
2022-09-07T16:10:34.111Z,25.70
2022-09-07T16:13:08.778Z,25.60
2022-09-07T16:15:46.416Z,25.50
2022-09-07T16:18:18.024Z,25.30
2022-09-07T16:20:52.164Z,25.30
2022-09-07T16:23:21.226Z,25.20
2022-09-07T16:26:01.066Z,25.20
2022-09-07T16:28:30.635Z,25.20
2022-09-07T16:31:05.798Z,25.10
2022-09-07T16:33:37.007Z,25.10
2022-09-07T16:36:09.362Z,25.00
2022-09-07T16:38:47.050Z,24.90
2022-09-07T16:41:19.995Z,24.90
2022-09-07T16:43:48.905Z,24.70
2022-09-07T16:46:20.880Z,24.70
2022-09-07T16:48:49.780Z,24.60
2022-09-07T16:51:21.211Z,24.50
2022-09-07T16:53:51.377Z,24.50
2022-09-07T16:56:22.150Z,24.50
2022-09-07T16:58:52.840Z,24.50
2022-09-07T17:01:25.942Z,24.40
2022-09-07T17:03:54.408Z,24.40
2022-09-07T17:06:25.723Z,24.40
2022-09-07T17:08:55.199Z,24.30
2022-09-07T17:11:26.413Z,24.20
2022-09-07T17:13:57.454Z,24.00
2022-09-07T17:16:29.961Z,23.90
2022-09-07T17:21:50.372Z,23.70
2022-09-07T17:24:19.802Z,23.60
2022-09-07T17:26:48.812Z,23.50
2022-09-07T17:29:16.853Z,23.40
2022-09-07T17:34:34.493Z,23.20
2022-09-07T17:37:03.341Z,23.30
2022-09-07T17:39:31.597Z,23.20
2022-09-07T17:42:00.912Z,23.20
2022-09-07T17:44:34.697Z,23.20
2022-09-07T17:47:07.844Z,23.20
2022-09-07T17:49:35.870Z,23.10
2022-09-07T17:52:04.979Z,23.10
2022-09-07T17:54:34.579Z,23.00
2022-09-07T17:57:03.211Z,22.90
2022-09-07T18:02:21.337Z,22.80
2022-09-07T18:04:49.965Z,22.80
2022-09-07T18:07:18.021Z,22.70
2022-09-07T18:09:46.548Z,22.70
2022-09-07T18:12:14.845Z,22.60
2022-09-07T18:14:43.872Z,22.50
2022-09-07T18:17:12.526Z,22.50
2022-09-07T18:19:41.929Z,22.40
2022-09-07T18:22:11.024Z,22.40
2022-09-07T18:24:39.593Z,22.40
2022-09-07T18:27:08.015Z,22.30
2022-09-07T18:29:36.340Z,22.20
2022-09-07T18:32:09.804Z,22.10
2022-09-07T18:34:41.638Z,22.10
2022-09-07T18:37:12.152Z,22.00
2022-09-07T18:39:40.868Z,22.00
2022-09-07T18:42:11.058Z,22.00
2022-09-07T18:47:29.189Z,21.90
2022-09-07T18:49:59.497Z,22.00
2022-09-07T18:55:17.574Z,21.90
2022-09-07T18:57:45.951Z,21.90
2022-09-07T19:00:15.168Z,21.80
2022-09-07T19:02:43.376Z,21.90
2022-09-07T19:08:03.443Z,21.90
2022-09-07T19:10:36.032Z,21.90
2022-09-07T19:13:04.643Z,21.80
2022-09-07T19:15:37.453Z,21.90
2022-09-07T19:18:08.729Z,21.70
2022-09-07T19:20:39.374Z,21.60
2022-09-07T19:23:07.904Z,21.60
2022-09-07T19:25:40.849Z,21.50
2022-09-07T19:28:09.379Z,21.50
2022-09-07T19:30:38.039Z,21.50
2022-09-07T19:33:10.089Z,21.50
2022-09-07T19:35:39.718Z,21.50
2022-09-07T19:38:08.185Z,21.50
2022-09-07T19:40:36.309Z,21.50
2022-09-07T19:43:05.663Z,21.40
2022-09-07T19:45:37.710Z,21.40
2022-09-07T19:48:06.645Z,21.30
2022-09-07T19:50:34.948Z,21.20
2022-09-07T19:53:04.540Z,21.20
2022-09-07T19:55:32.879Z,21.20
2022-09-07T19:58:01.067Z,21.10
2022-09-07T20:00:29.950Z,21.10
2022-09-07T20:02:58.793Z,21.00
2022-09-07T20:05:29.450Z,21.00
2022-09-07T20:07:58.274Z,21.00
2022-09-07T20:10:27.734Z,21.00
2022-09-07T20:12:56.017Z,21.00
2022-09-07T20:15:24.593Z,21.00
2022-09-07T20:17:53.823Z,20.90
2022-09-07T20:20:22.268Z,20.90
2022-09-07T20:22:50.773Z,20.80
2022-09-07T20:25:19.013Z,20.80
2022-09-07T20:27:48.586Z,20.70
2022-09-07T20:30:17.817Z,20.70
2022-09-07T20:32:46.580Z,20.70
2022-09-07T20:35:14.942Z,20.60
2022-09-07T20:37:43.495Z,20.60
2022-09-07T20:40:12.925Z,20.60
2022-09-07T20:42:41.670Z,20.60
2022-09-07T20:45:12.387Z,20.50
2022-09-07T20:47:40.773Z,20.50
2022-09-07T20:50:09.747Z,20.50
2022-09-07T20:52:37.868Z,20.50
2022-09-07T20:55:07.513Z,20.40
2022-09-07T20:57:37.838Z,20.50
2022-09-07T21:00:08.141Z,20.40
2022-09-07T21:02:37.933Z,20.40
2022-09-07T21:05:08.254Z,20.40
2022-09-07T21:07:38.716Z,20.50
2022-09-07T21:10:09.706Z,20.40
2022-09-07T21:12:38.069Z,20.50
2022-09-07T21:15:08.879Z,20.40
2022-09-07T21:17:38.701Z,20.40
2022-09-07T21:20:08.245Z,20.40
2022-09-07T21:22:36.390Z,20.40
2022-09-07T21:25:05.530Z,20.40
2022-09-07T21:27:38.767Z,20.40
2022-09-07T21:30:08.846Z,20.40
2022-09-07T21:32:40.355Z,20.50
2022-09-07T21:35:11.601Z,20.50
2022-09-07T21:37:39.950Z,20.60
2022-09-07T21:40:10.096Z,20.50
2022-09-07T21:42:39.533Z,20.60
2022-09-07T21:45:10.541Z,20.60
2022-09-07T21:47:39.962Z,20.60
2022-09-07T21:50:09.323Z,20.60
2022-09-07T21:52:38.893Z,20.60
2022-09-07T21:55:09.152Z,20.60
2022-09-07T21:57:37.336Z,20.60
2022-09-07T22:00:08.846Z,20.60
2022-09-07T22:02:38.697Z,20.60
2022-09-07T22:05:07.507Z,20.60
2022-09-07T22:07:36.133Z,20.60
2022-09-07T22:10:04.876Z,20.60
2022-09-07T22:12:33.479Z,20.60
2022-09-07T22:15:01.606Z,20.70
2022-09-07T22:17:30.031Z,20.60
2022-09-07T22:19:59.658Z,20.60
2022-09-07T22:22:27.781Z,20.60
2022-09-07T22:24:56.020Z,20.60
2022-09-07T22:27:24.309Z,20.70
2022-09-07T22:29:53.088Z,20.60
2022-09-07T22:32:21.281Z,20.60
2022-09-07T22:34:49.946Z,20.40
2022-09-07T22:37:19.582Z,20.50
2022-09-07T22:39:48.312Z,20.80
2022-09-07T22:42:17.128Z,20.50
2022-09-07T22:44:45.156Z,20.60
2022-09-07T22:47:14.339Z,20.60
2022-09-07T22:49:42.438Z,20.60
2022-09-07T22:52:11.499Z,20.60
2022-09-07T22:54:41.169Z,20.60
2022-09-07T22:57:09.722Z,20.50
2022-09-07T22:59:38.285Z,20.70
2022-09-07T23:02:06.437Z,20.80
2022-09-07T23:04:34.815Z,20.70
2022-09-07T23:07:03.522Z,20.70
2022-09-07T23:09:31.877Z,20.60
2022-09-07T23:12:01.594Z,20.60
2022-09-07T23:14:29.722Z,20.30
2022-09-07T23:16:58.813Z,20.30
2022-09-07T23:19:27.066Z,19.90
2022-09-07T23:21:55.192Z,19.90
2022-09-07T23:24:23.551Z,19.80
2022-09-07T23:26:51.549Z,19.70
2022-09-07T23:29:21.881Z,19.60
2022-09-07T23:31:51.158Z,19.60
2022-09-07T23:34:19.501Z,19.50
2022-09-07T23:36:47.668Z,19.50
2022-09-07T23:39:16.473Z,19.50
2022-09-07T23:41:44.781Z,19.50
2022-09-07T23:44:12.858Z,19.50
2022-09-07T23:46:42.548Z,19.50
2022-09-07T23:49:10.908Z,19.50
2022-09-07T23:51:39.076Z,19.50
2022-09-07T23:54:07.419Z,19.40
2022-09-07T23:56:38.138Z,19.30
2022-09-07T23:59:06.465Z,19.30
